Time;durP1;ratioP1;P1;durP2;ratioP2;P2;SDS_P1;SDS_P2;PMS_P1;PMS_P2;Temp;Humidity;BMP_temperature;BMP_pressure;BME280_temperature;BME280_humidity;BME280_pressure;Samples;Min_cycle;Max_cycle;Signal;HPM_P1;HPM_P2
2022/07/14 00:00:46;;;;;;;4.82;2.90;;;;;;;;;;5027434;28;21289;-74
2022/07/14 00:03:13;;;;;;;3.10;2.70;;;;;;;;;;5028306;28;20862;-74
2022/07/14 00:05:41;;;;;;;5.82;2.90;;;;;;;;;;5027963;28;20411;-74
2022/07/14 00:08:09;;;;;;;3.65;3.20;;;;;;;;;;5028238;28;20421;-74
2022/07/14 00:10:36;;;;;;;5.30;3.17;;;;;;;;;;5026753;28;20570;-75
2022/07/14 00:13:03;;;;;;;3.80;2.90;;;;;;;;;;5028198;28;21005;-74
2022/07/14 00:15:31;;;;;;;5.22;2.90;;;;;;;;;;5027908;28;20418;-74
2022/07/14 00:17:59;;;;;;;4.32;3.03;;;;;;;;;;5028000;28;21194;-74
2022/07/14 00:20:27;;;;;;;5.13;3.08;;;;;;;;;;5027019;28;20430;-74
2022/07/14 00:22:56;;;;;;;4.15;3.30;;;;;;;;;;5028332;28;20426;-74
2022/07/14 00:25:23;;;;;;;4.55;3.00;;;;;;;;;;5027218;28;20441;-74
2022/07/14 00:27:51;;;;;;;3.80;2.90;;;;;;;;;;5028177;28;20411;-74
2022/07/14 00:30:18;;;;;;;5.07;3.13;;;;;;;;;;5026619;28;20426;-74
2022/07/14 00:32:45;;;;;;;3.83;3.30;;;;;;;;;;5028245;28;20479;-74
2022/07/14 00:35:12;;;;;;;3.83;3.03;;;;;;;;;;5027906;28;20411;-74
2022/07/14 00:37:39;;;;;;;4.68;2.72;;;;;;;;;;5027730;28;20766;-74
2022/07/14 00:40:09;;;;;;;5.28;3.47;;;;;;;;;;5026372;28;20425;-74
2022/07/14 00:42:37;;;;;;;3.47;3.08;;;;;;;;;;5027432;28;20490;-75
2022/07/14 00:45:05;;;;;;;5.20;3.10;;;;;;;;;;5027355;28;20797;-74
2022/07/14 00:47:33;;;;;;;5.00;3.10;;;;;;;;;;5028002;28;20553;-73
2022/07/14 00:50:00;;;;;;;4.80;3.05;;;;;;;;;;5074884;23;20441;-72
2022/07/14 00:52:29;;;;;;;4.80;3.40;;;;;;;;;;5068759;28;20476;-72
2022/07/14 00:54:56;;;;;;;3.85;3.20;;;;;;;;;;5068074;28;21027;-72
2022/07/14 00:57:25;;;;;;;4.10;3.40;;;;;;;;;;5069087;28;20769;-74
2022/07/14 00:59:53;;;;;;;4.97;3.10;;;;;;;;;;5068192;28;20462;-75
2022/07/14 01:02:20;;;;;;;4.50;2.90;;;;;;;;;;5068462;28;20411;-74
2022/07/14 01:04:48;;;;;;;6.33;3.07;;;;;;;;;;5068290;28;20495;-74
2022/07/14 01:07:15;;;;;;;5.57;3.20;;;;;;;;;;5068515;28;20502;-73
2022/07/14 01:09:43;;;;;;;3.53;2.90;;;;;;;;;;5067959;28;20492;-75
2022/07/14 01:12:10;;;;;;;4.07;3.08;;;;;;;;;;5068109;28;20511;-73
2022/07/14 01:14:39;;;;;;;4.45;3.40;;;;;;;;;;5068104;28;20426;-74
2022/07/14 01:17:06;;;;;;;5.63;2.75;;;;;;;;;;5068488;28;20873;-73
2022/07/14 01:19:34;;;;;;;4.30;3.17;;;;;;;;;;5068221;28;20446;-73
2022/07/14 01:22:03;;;;;;;5.43;3.30;;;;;;;;;;5064859;28;20491;-73
2022/07/14 01:24:30;;;;;;;4.03;3.00;;;;;;;;;;5067407;28;20412;-73
2022/07/14 01:26:57;;;;;;;6.07;3.72;;;;;;;;;;5068459;28;20415;-72
2022/07/14 01:29:25;;;;;;;4.38;3.70;;;;;;;;;;5067791;28;20894;-73
2022/07/14 01:31:52;;;;;;;5.45;3.40;;;;;;;;;;5067611;28;20494;-73
2022/07/14 01:34:19;;;;;;;4.65;3.10;;;;;;;;;;5067791;28;20431;-74
2022/07/14 01:36:48;;;;;;;5.70;3.70;;;;;;;;;;5068158;28;20411;-73
2022/07/14 01:39:17;;;;;;;5.30;3.28;;;;;;;;;;5067756;28;20415;-72
2022/07/14 01:41:44;;;;;;;5.67;3.73;;;;;;;;;;5067213;28;20419;-74
2022/07/14 01:44:11;;;;;;;6.32;3.83;;;;;;;;;;5068156;28;20403;-73
2022/07/14 01:46:38;;;;;;;4.75;3.45;;;;;;;;;;5067887;28;21176;-73
2022/07/14 01:49:06;;;;;;;4.88;4.00;;;;;;;;;;5067575;28;20412;-73
2022/07/14 01:51:33;;;;;;;4.93;3.77;;;;;;;;;;5067102;28;20420;-73
2022/07/14 01:54:00;;;;;;;8.60;3.80;;;;;;;;;;5067094;28;20419;-73
2022/07/14 01:56:29;;;;;;;6.00;3.97;;;;;;;;;;5067897;28;20957;-74
2022/07/14 01:58:56;;;;;;;7.10;4.18;;;;;;;;;;5067335;28;20779;-72
2022/07/14 02:04:17;;;;;;;5.50;3.60;;;;;;;;;;5030835;28;20407;-72
2022/07/14 02:06:45;;;;;;;5.40;3.90;;;;;;;;;;5068336;28;20427;-73
2022/07/14 02:09:12;;;;;;;4.50;3.40;;;;;;;;;;5070399;28;20426;-72
2022/07/14 02:14:26;;;;;;;5.35;3.75;;;;;;;;;;5069457;28;20431;-73
2022/07/14 02:16:54;;;;;;;7.75;4.18;;;;;;;;;;5069394;28;20424;-72
2022/07/14 02:19:21;;;;;;;5.63;3.90;;;;;;;;;;5067893;28;20878;-73
2022/07/14 02:21:48;;;;;;;10.43;4.10;;;;;;;;;;5067607;28;20418;-72
2022/07/14 02:24:15;;;;;;;6.72;3.97;;;;;;;;;;5066811;28;20472;-74
2022/07/14 02:26:44;;;;;;;6.00;3.90;;;;;;;;;;5067604;28;20916;-72
2022/07/14 02:29:11;;;;;;;6.05;4.00;;;;;;;;;;5067246;28;20793;-72
2022/07/14 02:31:39;;;;;;;5.82;3.60;;;;;;;;;;5067015;28;20414;-73
2022/07/14 02:34:06;;;;;;;6.85;3.95;;;;;;;;;;5067024;28;20502;-72
2022/07/14 02:36:34;;;;;;;8.85;4.00;;;;;;;;;;5067510;28;20400;-73
2022/07/14 02:39:01;;;;;;;6.47;4.28;;;;;;;;;;5066413;28;20416;-72
2022/07/14 02:41:28;;;;;;;5.90;3.80;;;;;;;;;;5066786;28;20420;-72
2022/07/14 02:43:56;;;;;;;5.70;3.65;;;;;;;;;;5066964;28;20421;-73
2022/07/14 02:46:23;;;;;;;5.88;3.80;;;;;;;;;;5067584;28;20889;-75
2022/07/14 02:48:51;;;;;;;7.70;3.75;;;;;;;;;;5067038;28;20519;-73
2022/07/14 02:51:18;;;;;;;6.60;4.32;;;;;;;;;;5066688;28;20477;-72
2022/07/14 02:53:45;;;;;;;6.45;4.05;;;;;;;;;;5066466;28;20785;-72
2022/07/14 02:56:13;;;;;;;6.97;4.30;;;;;;;;;;5066484;28;20421;-73
2022/07/14 02:58:40;;;;;;;5.43;4.05;;;;;;;;;;5066916;28;20766;-73
2022/07/14 03:01:10;;;;;;;7.47;3.95;;;;;;;;;;5066261;28;20411;-73
2022/07/14 03:03:37;;;;;;;7.93;4.00;;;;;;;;;;5066360;28;20419;-72
2022/07/14 03:06:08;;;;;;;6.40;3.70;;;;;;;;;;5066808;28;20749;-73
2022/07/14 03:08:35;;;;;;;6.07;3.83;;;;;;;;;;5066808;28;20414;-72
2022/07/14 03:11:02;;;;;;;7.33;3.93;;;;;;;;;;5065669;28;20438;-72
2022/07/14 03:13:29;;;;;;;6.05;3.90;;;;;;;;;;5066810;28;20924;-72
2022/07/14 03:15:56;;;;;;;7.22;4.40;;;;;;;;;;5066832;28;20415;-72
2022/07/14 03:18:25;;;;;;;7.65;4.07;;;;;;;;;;5066919;28;20845;-71
2022/07/14 03:20:53;;;;;;;9.93;4.22;;;;;;;;;;5066345;28;20427;-73
2022/07/14 03:23:20;;;;;;;8.60;4.35;;;;;;;;;;5066904;28;20411;-72
2022/07/14 03:25:47;;;;;;;5.13;4.10;;;;;;;;;;5066023;28;20411;-74
2022/07/14 03:28:15;;;;;;;6.32;4.03;;;;;;;;;;5066682;28;20424;-73
2022/07/14 03:30:42;;;;;;;8.13;4.32;;;;;;;;;;5066978;28;20426;-74
2022/07/14 03:33:10;;;;;;;8.13;4.30;;;;;;;;;;5070226;28;20449;-74
2022/07/14 03:35:39;;;;;;;7.70;4.47;;;;;;;;;;5069550;28;20506;-74
2022/07/14 03:38:06;;;;;;;8.35;4.75;;;;;;;;;;5070528;28;20412;-72
2022/07/14 03:40:34;;;;;;;7.20;4.45;;;;;;;;;;5068760;28;20793;-72
2022/07/14 03:43:01;;;;;;;7.20;4.88;;;;;;;;;;5070344;28;20846;-72
2022/07/14 03:45:28;;;;;;;6.27;4.20;;;;;;;;;;5070199;28;20419;-73
2022/07/14 03:47:56;;;;;;;8.40;4.90;;;;;;;;;;5070032;28;20415;-72
2022/07/14 03:50:23;;;;;;;9.30;4.70;;;;;;;;;;5069301;28;20416;-73
2022/07/14 03:52:51;;;;;;;8.02;5.18;;;;;;;;;;5070079;28;20514;-73
2022/07/14 03:55:19;;;;;;;9.20;4.95;;;;;;;;;;5069418;28;20442;-72
2022/07/14 03:57:46;;;;;;;6.97;4.40;;;;;;;;;;5070424;28;20408;-73
2022/07/14 04:00:14;;;;;;;6.70;4.63;;;;;;;;;;5070659;28;20417;-73
2022/07/14 04:02:41;;;;;;;6.68;4.40;;;;;;;;;;5091393;28;20439;-74
2022/07/14 04:05:08;;;;;;;8.35;4.30;;;;;;;;;;5092163;28;20496;-73
2022/07/14 04:07:36;;;;;;;7.28;4.60;;;;;;;;;;5089725;28;20422;-73
2022/07/14 04:10:04;;;;;;;8.20;4.80;;;;;;;;;;5086580;28;20425;-73
2022/07/14 04:12:31;;;;;;;8.45;4.43;;;;;;;;;;5074607;28;20408;-72
2022/07/14 04:14:59;;;;;;;7.82;4.50;;;;;;;;;;5069461;28;20427;-73
2022/07/14 04:17:26;;;;;;;10.50;4.78;;;;;;;;;;5069709;28;20415;-74
2022/07/14 04:19:53;;;;;;;9.88;4.85;;;;;;;;;;5068887;28;20474;-74
2022/07/14 04:22:20;;;;;;;6.40;4.68;;;;;;;;;;5069348;28;20419;-73
2022/07/14 04:24:47;;;;;;;8.43;5.10;;;;;;;;;;5068674;28;20403;-72
2022/07/14 04:27:16;;;;;;;7.70;4.80;;;;;;;;;;5069838;28;20418;-72
2022/07/14 04:29:43;;;;;;;7.35;4.57;;;;;;;;;;5069205;28;20444;-72
2022/07/14 04:32:11;;;;;;;8.88;5.18;;;;;;;;;;5067392;28;20901;-74
2022/07/14 04:34:39;;;;;;;7.53;4.60;;;;;;;;;;5068949;28;20435;-71
2022/07/14 04:37:06;;;;;;;7.10;4.15;;;;;;;;;;5069208;28;20415;-74
2022/07/14 04:39:33;;;;;;;7.20;4.82;;;;;;;;;;5068746;28;20496;-74
2022/07/14 04:42:00;;;;;;;6.65;4.50;;;;;;;;;;5068294;28;20423;-73
2022/07/14 04:44:29;;;;;;;9.10;4.82;;;;;;;;;;5069235;28;20773;-73
2022/07/14 04:46:56;;;;;;;8.13;4.40;;;;;;;;;;5069472;28;20849;-73
2022/07/14 04:52:08;;;;;;;7.38;4.82;;;;;;;;;;5068583;28;20498;-73
2022/07/14 04:54:36;;;;;;;7.70;4.70;;;;;;;;;;5068314;28;20430;-72
2022/07/14 04:57:04;;;;;;;7.50;4.68;;;;;;;;;;5064813;28;20852;-74
2022/07/14 04:59:33;;;;;;;8.93;4.40;;;;;;;;;;5065057;28;20426;-73
2022/07/14 05:02:01;;;;;;;8.63;4.60;;;;;;;;;;5065598;28;20446;-73
2022/07/14 05:04:28;;;;;;;8.43;4.57;;;;;;;;;;5064543;28;20415;-71
2022/07/14 05:06:55;;;;;;;10.60;4.83;;;;;;;;;;5070621;28;20419;-74
2022/07/14 05:09:25;;;;;;;9.25;5.00;;;;;;;;;;5068104;28;20842;-72
2022/07/14 05:11:52;;;;;;;10.10;4.90;;;;;;;;;;5068545;28;20422;-73
2022/07/14 05:14:19;;;;;;;9.40;5.20;;;;;;;;;;5068510;28;20881;-72
2022/07/14 05:16:49;;;;;;;8.35;4.72;;;;;;;;;;5068645;28;20422;-73
2022/07/14 05:19:16;;;;;;;7.90;4.78;;;;;;;;;;5068320;28;20537;-73
2022/07/14 05:21:43;;;;;;;9.25;4.40;;;;;;;;;;5068108;28;20416;-73
2022/07/14 05:24:11;;;;;;;7.68;4.70;;;;;;;;;;5068346;28;20560;-73
2022/07/14 05:26:38;;;;;;;9.02;4.80;;;;;;;;;;5069107;28;20556;-72
2022/07/14 05:29:05;;;;;;;10.15;4.93;;;;;;;;;;5062920;28;20424;-73
2022/07/14 05:31:32;;;;;;;8.35;4.63;;;;;;;;;;5063365;28;20815;-74
2022/07/14 05:34:01;;;;;;;8.35;4.75;;;;;;;;;;5067720;28;20415;-72
2022/07/14 05:36:28;;;;;;;7.18;4.60;;;;;;;;;;5068290;28;20434;-74
2022/07/14 05:38:56;;;;;;;7.88;4.63;;;;;;;;;;5067384;28;21109;-76
2022/07/14 05:41:23;;;;;;;8.52;4.10;;;;;;;;;;5067646;28;20505;-72
2022/07/14 05:43:50;;;;;;;10.07;4.40;;;;;;;;;;5068252;28;20416;-71
2022/07/14 05:46:17;;;;;;;10.20;5.00;;;;;;;;;;5061744;28;20506;-73
2022/07/14 05:48:44;;;;;;;6.90;4.90;;;;;;;;;;5065910;28;20973;-73
2022/07/14 05:51:14;;;;;;;7.85;4.70;;;;;;;;;;5067621;28;20419;-74
2022/07/14 05:53:42;;;;;;;8.88;4.80;;;;;;;;;;5067531;28;20439;-73
2022/07/14 05:56:11;;;;;;;9.57;4.80;;;;;;;;;;5066503;28;20470;-75
2022/07/14 05:58:39;;;;;;;9.23;4.68;;;;;;;;;;5068700;28;20415;-73
2022/07/14 06:01:07;;;;;;;9.50;5.03;;;;;;;;;;5068862;28;20418;-75
2022/07/14 06:03:34;;;;;;;10.77;4.10;;;;;;;;;;5068132;28;20420;-73
2022/07/14 06:06:01;;;;;;;6.57;4.25;;;;;;;;;;5067475;28;20414;-74
2022/07/14 06:08:30;;;;;;;9.55;5.00;;;;;;;;;;5068005;28;21052;-72
2022/07/14 06:10:57;;;;;;;7.20;4.22;;;;;;;;;;5066420;28;20408;-73
2022/07/14 06:13:25;;;;;;;10.23;4.68;;;;;;;;;;5067473;28;20438;-73
2022/07/14 06:15:52;;;;;;;9.35;4.60;;;;;;;;;;5067175;28;20427;-72
2022/07/14 06:18:19;;;;;;;8.68;4.60;;;;;;;;;;5067432;28;20418;-73
2022/07/14 06:20:47;;;;;;;8.55;4.90;;;;;;;;;;5066591;28;21060;-73
2022/07/14 06:23:14;;;;;;;11.40;4.90;;;;;;;;;;5067256;28;20521;-73
2022/07/14 06:25:42;;;;;;;7.97;4.90;;;;;;;;;;5062228;28;20943;-74
2022/07/14 06:28:11;;;;;;;8.82;4.88;;;;;;;;;;5066416;28;20430;-72
2022/07/14 06:30:38;;;;;;;8.20;4.40;;;;;;;;;;5059113;28;20778;-73
2022/07/14 06:33:05;;;;;;;10.98;4.75;;;;;;;;;;5067188;28;20925;-71
2022/07/14 06:35:32;;;;;;;7.03;4.20;;;;;;;;;;5059255;28;20446;-72
2022/07/14 06:38:00;;;;;;;7.55;4.70;;;;;;;;;;5067786;28;20455;-74
2022/07/14 06:40:27;;;;;;;8.95;4.57;;;;;;;;;;5065948;28;20723;-73
2022/07/14 06:42:55;;;;;;;6.90;4.47;;;;;;;;;;5065272;28;20421;-72
2022/07/14 06:45:22;;;;;;;7.43;4.28;;;;;;;;;;5062670;28;20411;-75
2022/07/14 06:47:50;;;;;;;9.35;4.43;;;;;;;;;;5056722;28;20419;-73
2022/07/14 06:50:17;;;;;;;11.70;5.00;;;;;;;;;;5089572;23;20450;-74
2022/07/14 06:52:44;;;;;;;9.70;4.50;;;;;;;;;;5065431;28;20423;-74
2022/07/14 06:55:11;;;;;;;8.50;4.90;;;;;;;;;;5064438;28;20430;-73
2022/07/14 06:57:38;;;;;;;8.43;4.47;;;;;;;;;;5066320;28;20470;-74
2022/07/14 07:00:08;;;;;;;7.95;5.20;;;;;;;;;;5052884;28;20877;-74
2022/07/14 07:02:36;;;;;;;8.40;4.50;;;;;;;;;;5046276;28;20869;-74
2022/07/14 07:07:48;;;;;;;8.13;4.40;;;;;;;;;;5049499;28;20389;-74
2022/07/14 07:10:15;;;;;;;12.75;4.88;;;;;;;;;;5048059;28;20893;-74
2022/07/14 07:12:42;;;;;;;9.40;4.53;;;;;;;;;;5049878;28;20504;-74
2022/07/14 07:15:11;;;;;;;7.43;4.80;;;;;;;;;;5048939;28;20447;-74
2022/07/14 07:17:38;;;;;;;10.85;5.47;;;;;;;;;;5049620;28;20417;-74
2022/07/14 07:20:06;;;;;;;7.93;4.57;;;;;;;;;;5048431;28;21016;-74
2022/07/14 07:22:33;;;;;;;7.50;4.73;;;;;;;;;;5049416;28;21006;-74
2022/07/14 07:25:00;;;;;;;6.90;4.50;;;;;;;;;;5047951;28;20409;-74
2022/07/14 07:27:27;;;;;;;7.18;5.22;;;;;;;;;;5065196;28;20538;-74
2022/07/14 07:29:54;;;;;;;8.77;4.60;;;;;;;;;;5064732;28;20415;-74
2022/07/14 07:32:23;;;;;;;8.13;4.85;;;;;;;;;;5060953;28;20407;-74
2022/07/14 07:34:50;;;;;;;9.00;5.03;;;;;;;;;;5069189;28;20419;-74
2022/07/14 07:37:17;;;;;;;8.75;4.78;;;;;;;;;;5061451;28;20411;-74
2022/07/14 07:39:44;;;;;;;11.80;5.00;;;;;;;;;;5067907;28;20740;-74
2022/07/14 07:42:11;;;;;;;10.02;4.85;;;;;;;;;;5068937;28;20416;-74
2022/07/14 07:44:38;;;;;;;8.68;4.32;;;;;;;;;;5068534;28;20443;-74
2022/07/14 07:47:05;;;;;;;7.53;4.10;;;;;;;;;;5069375;28;20501;-74
2022/07/14 07:49:34;;;;;;;8.38;4.20;;;;;;;;;;5068766;28;20416;-74
2022/07/14 07:52:01;;;;;;;10.73;5.10;;;;;;;;;;5066927;28;20470;-74
2022/07/14 07:54:29;;;;;;;8.60;4.07;;;;;;;;;;5055784;28;20413;-74
2022/07/14 07:56:57;;;;;;;8.48;4.40;;;;;;;;;;5063675;28;20425;-74
2022/07/14 07:59:25;;;;;;;9.40;3.90;;;;;;;;;;5063573;28;20423;-74
2022/07/14 08:01:52;;;;;;;7.47;4.03;;;;;;;;;;5060039;28;20421;-74
2022/07/14 08:04:19;;;;;;;9.67;4.07;;;;;;;;;;5062132;28;20421;-74
2022/07/14 08:06:47;;;;;;;8.43;3.90;;;;;;;;;;5064686;28;20442;-74
2022/07/14 08:09:14;;;;;;;7.32;4.03;;;;;;;;;;5061546;28;20419;-74
2022/07/14 08:11:42;;;;;;;8.70;4.22;;;;;;;;;;5067918;28;20411;-74
2022/07/14 08:14:47;;;;;;;5.80;3.10;;;;;;;;;;5068203;28;20570;-74
2022/07/14 08:16:58;;;;;;;7.93;3.60;;;;;;;;;;5067622;28;20451;-73
2022/07/14 08:19:25;;;;;;;6.95;3.20;;;;;;;;;;5068097;28;20529;-74
2022/07/14 08:21:54;;;;;;;7.60;3.40;;;;;;;;;;5068239;28;20415;-74
2022/07/14 08:24:23;;;;;;;6.40;3.20;;;;;;;;;;5066850;28;20423;-74
2022/07/14 08:26:50;;;;;;;7.40;2.95;;;;;;;;;;5068372;28;20423;-74
2022/07/14 08:29:18;;;;;;;5.82;2.50;;;;;;;;;;5067917;28;20768;-74
2022/07/14 08:31:45;;;;;;;5.40;2.50;;;;;;;;;;5067499;28;20435;-74
2022/07/14 08:34:12;;;;;;;5.00;2.33;;;;;;;;;;5067692;28;20442;-74
2022/07/14 08:36:39;;;;;;;5.93;2.90;;;;;;;;;;5068016;28;20488;-74
2022/07/14 08:39:08;;;;;;;4.57;2.50;;;;;;;;;;5066797;28;20473;-74
2022/07/14 08:41:36;;;;;;;5.78;2.70;;;;;;;;;;5067589;28;20415;-74
2022/07/14 08:44:04;;;;;;;4.65;2.17;;;;;;;;;;5065883;28;20438;-74
2022/07/14 08:46:32;;;;;;;6.38;2.20;;;;;;;;;;5063932;28;20415;-75
2022/07/14 08:48:59;;;;;;;5.03;2.40;;;;;;;;;;5057105;28;20417;-74
2022/07/14 08:51:27;;;;;;;2.58;1.70;;;;;;;;;;5060293;28;20413;-74
2022/07/14 08:53:54;;;;;;;4.10;1.80;;;;;;;;;;5066178;28;20419;-75
2022/07/14 08:56:23;;;;;;;3.80;1.95;;;;;;;;;;5067371;28;20427;-75
2022/07/14 08:58:50;;;;;;;4.35;1.80;;;;;;;;;;5067436;28;20416;-74
2022/07/14 09:01:18;;;;;;;3.80;1.92;;;;;;;;;;5067261;28;20838;-74
2022/07/14 09:03:45;;;;;;;3.53;2.08;;;;;;;;;;5067725;28;20415;-75
2022/07/14 09:06:12;;;;;;;4.82;2.28;;;;;;;;;;5067321;28;20419;-74
2022/07/14 09:08:56;;;;;;;4.38;2.10;;;;;;;;;;5066285;28;20419;-75
2022/07/14 09:11:24;;;;;;;3.70;1.75;;;;;;;;;;5066625;28;20419;-75
2022/07/14 09:13:51;;;;;;;3.20;1.80;;;;;;;;;;5066669;28;20439;-74
2022/07/14 09:16:20;;;;;;;4.20;1.70;;;;;;;;;;5066767;28;20523;-74
2022/07/14 09:19:04;;;;;;;5.47;1.70;;;;;;;;;;5066997;28;20483;-74
2022/07/14 09:21:32;;;;;;;5.03;1.80;;;;;;;;;;5066769;28;20417;-74
2022/07/14 09:23:59;;;;;;;3.97;1.90;;;;;;;;;;5065752;28;21195;-75
2022/07/14 09:26:28;;;;;;;5.38;1.80;;;;;;;;;;5067199;28;20412;-75
2022/07/14 09:28:56;;;;;;;3.67;1.70;;;;;;;;;;5066391;28;20489;-75
2022/07/14 09:31:25;;;;;;;4.00;1.90;;;;;;;;;;5067121;28;20522;-76
2022/07/14 09:33:53;;;;;;;3.10;1.67;;;;;;;;;;5066408;28;20404;-75
2022/07/14 09:36:21;;;;;;;5.00;1.90;;;;;;;;;;5066628;28;20427;-75
2022/07/14 09:38:48;;;;;;;3.42;1.80;;;;;;;;;;5066404;28;20415;-75
2022/07/14 09:41:15;;;;;;;4.45;1.75;;;;;;;;;;5065579;28;20416;-75
2022/07/14 09:44:06;;;;;;;6.00;1.80;;;;;;;;;;5066447;28;20416;-75
2022/07/14 09:46:43;;;;;;;4.07;1.75;;;;;;;;;;5066698;28;20430;-75
2022/07/14 09:49:11;;;;;;;3.85;1.50;;;;;;;;;;5065962;28;20494;-75
2022/07/14 09:51:52;;;;;;;3.60;1.48;;;;;;;;;;5066381;28;20473;-75
2022/07/14 09:54:39;;;;;;;2.97;1.50;;;;;;;;;;5062285;28;20968;-75
2022/07/14 09:57:07;;;;;;;2.90;1.80;;;;;;;;;;5059366;28;20783;-75
2022/07/14 09:59:44;;;;;;;4.77;2.10;;;;;;;;;;5058950;28;20560;-75
2022/07/14 10:02:15;;;;;;;4.07;2.22;;;;;;;;;;5067498;28;20775;-74
2022/07/14 10:04:42;;;;;;;5.23;2.03;;;;;;;;;;5065000;28;20419;-74
2022/07/14 10:07:09;;;;;;;3.90;1.80;;;;;;;;;;5059566;28;20408;-75
2022/07/14 10:09:38;;;;;;;5.30;2.20;;;;;;;;;;5065643;28;20423;-75
2022/07/14 10:12:05;;;;;;;3.80;1.70;;;;;;;;;;5066001;28;20423;-74
2022/07/14 10:14:32;;;;;;;3.60;1.80;;;;;;;;;;5065797;28;20418;-75
2022/07/14 10:17:01;;;;;;;3.45;1.60;;;;;;;;;;5066003;28;20428;-74
2022/07/14 10:19:29;;;;;;;4.13;2.00;;;;;;;;;;5065687;28;20914;-74
2022/07/14 10:21:56;;;;;;;4.10;1.98;;;;;;;;;;5065661;28;20423;-75
2022/07/14 10:24:24;;;;;;;4.07;1.80;;;;;;;;;;5056277;28;20844;-75
2022/07/14 10:26:52;;;;;;;5.07;2.00;;;;;;;;;;5065941;28;20418;-75
2022/07/14 10:29:19;;;;;;;4.65;1.90;;;;;;;;;;5065675;28;20748;-75
2022/07/14 10:32:04;;;;;;;6.10;2.15;;;;;;;;;;5066122;28;20443;-75
2022/07/14 10:34:36;;;;;;;4.45;2.20;;;;;;;;;;5065660;28;20419;-74
2022/07/14 10:37:06;;;;;;;5.30;2.10;;;;;;;;;;5066342;28;20430;-74
2022/07/14 10:39:37;;;;;;;2.85;1.40;;;;;;;;;;5065984;28;20427;-74
2022/07/14 10:42:09;;;;;;;3.33;1.50;;;;;;;;;;5069586;28;20426;-74
2022/07/14 10:44:37;;;;;;;3.10;1.60;;;;;;;;;;5069715;28;20431;-74
2022/07/14 10:47:07;;;;;;;2.92;1.58;;;;;;;;;;5069974;28;20879;-74
2022/07/14 10:49:49;;;;;;;3.40;1.90;;;;;;;;;;5068439;28;20420;-75
2022/07/14 10:52:27;;;;;;;3.95;1.30;;;;;;;;;;5063149;28;20459;-75
2022/07/14 10:55:09;;;;;;;3.78;1.40;;;;;;;;;;5057739;28;20428;-74
2022/07/14 10:57:36;;;;;;;2.97;1.40;;;;;;;;;;5066698;28;20434;-74
2022/07/14 11:00:03;;;;;;;3.58;1.88;;;;;;;;;;5069153;28;20492;-74
2022/07/14 11:02:38;;;;;;;2.23;1.33;;;;;;;;;;5069770;28;20498;-75
2022/07/14 11:05:11;;;;;;;3.20;1.40;;;;;;;;;;5057517;28;20528;-74
2022/07/14 11:07:46;;;;;;;2.97;1.40;;;;;;;;;;5049619;28;20409;-75
2022/07/14 11:10:32;;;;;;;3.25;1.58;;;;;;;;;;5047940;28;20496;-75
2022/07/14 11:13:10;;;;;;;2.92;2.00;;;;;;;;;;5049726;28;20504;-75
2022/07/14 11:15:38;;;;;;;4.97;1.67;;;;;;;;;;5049827;28;20429;-75
2022/07/14 11:18:20;;;;;;;3.80;1.80;;;;;;;;;;5060712;28;20427;-75
2022/07/14 11:20:50;;;;;;;4.85;1.80;;;;;;;;;;5064860;28;20491;-75
2022/07/14 11:23:21;;;;;;;4.35;1.80;;;;;;;;;;5060877;28;20419;-75
2022/07/14 11:25:49;;;;;;;2.72;1.50;;;;;;;;;;5065993;28;20430;-75
2022/07/14 11:28:34;;;;;;;4.63;1.70;;;;;;;;;;5063454;28;20422;-75
2022/07/14 11:31:09;;;;;;;4.00;1.60;;;;;;;;;;5068481;28;20415;-75
2022/07/14 11:33:36;;;;;;;2.60;1.50;;;;;;;;;;5069083;28;20412;-76
2022/07/14 11:36:20;;;;;;;3.63;1.40;;;;;;;;;;5068859;28;20415;-75
2022/07/14 11:38:49;;;;;;;1.98;1.50;;;;;;;;;;5068764;28;20792;-75
2022/07/14 11:41:16;;;;;;;3.28;1.80;;;;;;;;;;5068231;28;20411;-75
2022/07/14 11:43:44;;;;;;;4.27;1.40;;;;;;;;;;5063025;28;20429;-74
2022/07/14 11:46:12;;;;;;;1.83;1.20;;;;;;;;;;5065225;28;20499;-75
2022/07/14 11:48:42;;;;;;;2.88;1.20;;;;;;;;;;5062990;28;20427;-76
2022/07/14 11:51:10;;;;;;;5.03;1.40;;;;;;;;;;5059901;28;20860;-75
2022/07/14 11:53:37;;;;;;;2.53;1.40;;;;;;;;;;5068428;28;20419;-75
2022/07/14 11:56:07;;;;;;;2.88;1.20;;;;;;;;;;5068207;28;20415;-75
2022/07/14 11:58:37;;;;;;;3.25;1.30;;;;;;;;;;5068579;28;20887;-75
2022/07/14 12:01:05;;;;;;;6.22;1.80;;;;;;;;;;5067834;28;20411;-75
2022/07/14 12:03:33;;;;;;;2.88;1.60;;;;;;;;;;5068478;28;20422;-75
2022/07/14 12:06:00;;;;;;;3.90;1.50;;;;;;;;;;5064445;28;22070;-74
2022/07/14 12:08:29;;;;;;;2.47;1.50;;;;;;;;;;5064311;28;20412;-74
2022/07/14 12:11:02;;;;;;;2.00;1.40;;;;;;;;;;5067447;28;20412;-74
2022/07/14 12:13:30;;;;;;;4.63;1.75;;;;;;;;;;5068845;28;20419;-74
2022/07/14 12:16:01;;;;;;;3.83;1.73;;;;;;;;;;5068799;28;20770;-74
2022/07/14 12:18:30;;;;;;;3.10;1.73;;;;;;;;;;5068257;28;20446;-73
2022/07/14 12:20:59;;;;;;;4.22;1.42;;;;;;;;;;5067978;28;20518;-74
2022/07/14 12:23:26;;;;;;;2.40;1.40;;;;;;;;;;5068407;28;20435;-73
2022/07/14 12:25:53;;;;;;;3.00;1.60;;;;;;;;;;5067613;28;20415;-74
2022/07/14 12:28:21;;;;;;;3.35;1.70;;;;;;;;;;5068123;28;20764;-75
2022/07/14 12:30:51;;;;;;;3.75;2.00;;;;;;;;;;5067252;28;20411;-75
2022/07/14 12:33:20;;;;;;;2.33;1.50;;;;;;;;;;5067682;28;20416;-74
2022/07/14 12:35:48;;;;;;;2.07;1.50;;;;;;;;;;5067624;28;20402;-74
2022/07/14 12:38:17;;;;;;;3.30;1.55;;;;;;;;;;5067720;28;20428;-74
2022/07/14 12:40:46;;;;;;;4.20;1.90;;;;;;;;;;5065819;28;20886;-74
2022/07/14 12:43:13;;;;;;;3.00;1.75;;;;;;;;;;5066809;28;20510;-74
2022/07/14 12:46:02;;;;;;;5.00;2.10;;;;;;;;;;5058632;28;20504;-76
2022/07/14 12:48:29;;;;;;;2.17;1.60;;;;;;;;;;5059839;28;20961;-73
2022/07/14 12:50:57;;;;;;;2.60;1.70;;;;;;;;;;5079715;22;20817;-69
2022/07/14 12:53:25;;;;;;;3.30;1.70;;;;;;;;;;5043113;28;20760;-70
2022/07/14 12:56:00;;;;;;;2.22;1.48;;;;;;;;;;5035279;28;20427;-71
2022/07/14 12:58:29;;;;;;;2.90;1.80;;;;;;;;;;5040133;28;20501;-69
2022/07/14 13:00:56;;;;;;;2.72;1.95;;;;;;;;;;5034599;28;20423;-73
2022/07/14 13:03:24;;;;;;;2.70;1.38;;;;;;;;;;5026205;28;20423;-70
2022/07/14 13:05:54;;;;;;;4.00;1.60;;;;;;;;;;5027082;28;20421;-70
2022/07/14 13:08:50;;;;;;;3.08;1.40;;;;;;;;;;5024934;28;20447;-69
2022/07/14 13:11:17;;;;;;;3.67;1.50;;;;;;;;;;5019693;28;20432;-70
2022/07/14 13:16:49;;;;;;;2.00;1.42;;;;;;;;;;5024329;28;20379;-69
2022/07/14 13:19:19;;;;;;;5.00;1.60;;;;;;;;;;5020682;28;20445;-70
2022/07/14 13:21:51;;;;;;;2.90;1.50;;;;;;;;;;5078270;22;20450;-69
2022/07/14 13:24:18;;;;;;;3.35;1.70;;;;;;;;;;5070817;28;20415;-69
2022/07/14 13:26:46;;;;;;;2.30;1.38;;;;;;;;;;5070766;28;20945;-69
2022/07/14 13:29:13;;;;;;;3.38;1.55;;;;;;;;;;5081887;28;20414;-69
2022/07/14 13:31:40;;;;;;;3.10;1.60;;;;;;;;;;5074846;28;20428;-69
2022/07/14 13:34:07;;;;;;;3.75;1.90;;;;;;;;;;5073636;28;20434;-70
2022/07/14 13:36:35;;;;;;;3.67;1.50;;;;;;;;;;5076394;28;20749;-70
2022/07/14 13:39:03;;;;;;;3.17;1.60;;;;;;;;;;5070794;28;20899;-69
2022/07/14 13:41:30;;;;;;;1.27;1.10;;;;;;;;;;5088222;28;20481;-70
2022/07/14 13:43:59;;;;;;;3.13;1.67;;;;;;;;;;5081589;28;20466;-70
2022/07/14 13:46:26;;;;;;;2.28;2.00;;;;;;;;;;5069214;28;20430;-70
2022/07/14 13:48:53;;;;;;;2.10;1.70;;;;;;;;;;5087380;28;20417;-69
2022/07/14 13:54:08;;;;;;;3.00;1.70;;;;;;;;;;5048907;28;20617;-72
2022/07/14 13:56:37;;;;;;;3.42;1.20;;;;;;;;;;5072041;28;20416;-72
2022/07/14 13:59:07;;;;;;;2.75;1.67;;;;;;;;;;5068917;28;21006;-72
2022/07/14 14:01:34;;;;;;;2.78;1.30;;;;;;;;;;5084305;28;20422;-72
2022/07/14 14:04:01;;;;;;;2.80;1.25;;;;;;;;;;5087929;28;20413;-72
2022/07/14 14:06:28;;;;;;;2.60;1.25;;;;;;;;;;5087845;28;20413;-72
2022/07/14 14:08:55;;;;;;;2.17;1.73;;;;;;;;;;5087964;28;20443;-72
2022/07/14 14:11:23;;;;;;;3.08;1.80;;;;;;;;;;5086899;28;20410;-72
2022/07/14 14:13:51;;;;;;;3.33;1.70;;;;;;;;;;5076603;28;20419;-72
2022/07/14 14:16:18;;;;;;;2.60;1.35;;;;;;;;;;5082466;28;20442;-72
2022/07/14 14:18:45;;;;;;;2.78;1.30;;;;;;;;;;5081006;28;20438;-72
2022/07/14 14:21:12;;;;;;;3.58;1.80;;;;;;;;;;5071107;28;20501;-72
2022/07/14 14:23:39;;;;;;;3.05;1.30;;;;;;;;;;5070686;28;20415;-72
2022/07/14 14:26:07;;;;;;;3.08;1.50;;;;;;;;;;5086681;28;20414;-72
2022/07/14 14:28:37;;;;;;;2.72;1.30;;;;;;;;;;5087876;28;20865;-71
2022/07/14 14:31:04;;;;;;;1.58;1.10;;;;;;;;;;5086208;28;20781;-72
2022/07/14 14:33:31;;;;;;;4.50;1.40;;;;;;;;;;5087775;28;20444;-71
2022/07/14 14:35:59;;;;;;;4.80;1.33;;;;;;;;;;5087168;28;20418;-72
2022/07/14 14:38:26;;;;;;;3.90;1.60;;;;;;;;;;5086900;28;20424;-72
2022/07/14 14:40:53;;;;;;;2.20;1.40;;;;;;;;;;5086391;28;20410;-72
2022/07/14 14:43:21;;;;;;;3.70;1.58;;;;;;;;;;5088602;28;20414;-72
2022/07/14 14:45:50;;;;;;;3.72;1.33;;;;;;;;;;5088577;28;20432;-73
2022/07/14 14:48:18;;;;;;;2.10;1.50;;;;;;;;;;5088611;28;20448;-72
2022/07/14 14:50:46;;;;;;;2.05;1.60;;;;;;;;;;5086796;28;20438;-72
2022/07/14 14:53:13;;;;;;;3.00;1.38;;;;;;;;;;5088221;28;20406;-72
2022/07/14 14:55:40;;;;;;;2.50;1.50;;;;;;;;;;5086302;28;20424;-72
2022/07/14 14:58:07;;;;;;;2.78;1.50;;;;;;;;;;5087737;28;20426;-72
2022/07/14 15:00:34;;;;;;;3.38;1.55;;;;;;;;;;5086930;28;20421;-72
2022/07/14 15:03:03;;;;;;;2.20;1.80;;;;;;;;;;5087269;28;20410;-71
2022/07/14 15:05:31;;;;;;;2.03;1.60;;;;;;;;;;5087277;28;20915;-71
2022/07/14 15:07:58;;;;;;;2.93;2.00;;;;;;;;;;5087493;28;20414;-71